Medellin, Colombia

4:57 AM COT on February 27, 2017 (GMT -0500)
Alborada | | Change Station

Elev 6942 ft 6.12 °N, 75.45 °W | Updated 12 seconds ago

Overcast
Overcast
57.0 °F
Feels Like 57.0 °F
N
0.0
Wind Variable Wind from SSW
Gusts 0.0 mph

Today
High -- | Low -- °F
--% Chance of Precip.
Yesterday
High -- | Low -- °F
Precip. -- in
Pressure 30.26 in
Visibility 3.7 miles
Clouds Mostly Cloudy 1000 ft
Scattered Clouds 8000 ft
Dew Point 55 °F
Humidity 93%
Rainfall 0.00 in
Snow Depth Not available.
6:15 AM 6:14 PM
New Moon, 1% visible
METAR SKRG 270900Z 00000KT 6000 VCFG BKN010 SCT080 13/12 A3026
Pressure 30.26 in
Visibility 3.7 miles
Clouds Mostly Cloudy 1000 ft
Scattered Clouds 8000 ft
Dew Point 55 °F
Humidity 93%
Rainfall 0.00 in
Snow Depth Not available.
6:15 AM 6:14 PM
New Moon, 1% visible
METAR SKRG 270900Z 00000KT 6000 VCFG BKN010 SCT080 13/12 A3026

Get Your Daily Forecast Email!

Thanks for signing up!

Be on the lookout for a verification email in your inbox.

You'll start receiving the daily forecast at 8 AM.

×

10-Day Weather Forecast

No radar image for this location.
×

Almanac

Astronomy

Feb. 27, 2017 Rise Set
Actual Time
Civil Twilight
Nautical Twilight
Astronomical Twilight
Moon
Length of Visible Light
Length of Day
Tomorrow will be .
, % of the Moon is Illuminated

Today's Extremes

Country Highs Country Lows

Community

WunderPhotos

Upload Photos

1,962,540 photos uploaded!

WunderBlog® & News

Nearby

Air Quality

  Air Quality AQ Index Pollutant
Not available.

Snow Depth

Station Depth Elevation

Earthquake Activity

City Distance Mag. Time & Date
Minimum magnitude displayed is 2.5.

Coastal Water Temperatures

Place Temperature

Stations

Nearby Weather Stations

Station Location Temp. Windchill Dew Point Humidity Wind Precip. Elev Updated Type